createdAt,value
2022-10-18T00:00:57.327Z,8.90
2022-10-18T00:03:24.662Z,8.80
2022-10-18T00:05:52.556Z,8.55
2022-10-18T00:08:20.482Z,9.65
2022-10-18T00:10:48.455Z,8.65
2022-10-18T00:13:15.630Z,8.07
2022-10-18T00:15:54.941Z,9.10
2022-10-18T00:18:22.210Z,8.98
2022-10-18T00:21:03.981Z,7.97
2022-10-18T00:23:32.686Z,7.88
2022-10-18T00:26:04.160Z,7.85
2022-10-18T00:28:32.973Z,8.03
2022-10-18T00:31:25.041Z,8.55
2022-10-18T00:33:55.797Z,7.95
2022-10-18T00:36:23.352Z,8.68
2022-10-18T00:38:50.658Z,8.18
2022-10-18T00:41:20.630Z,8.07
2022-10-18T00:43:52.710Z,7.78
2022-10-18T00:46:19.850Z,8.48
2022-10-18T00:48:47.185Z,9.60
2022-10-18T00:51:15.599Z,8.80
2022-10-18T00:53:42.866Z,7.90
2022-10-18T00:56:10.028Z,8.45
2022-10-18T00:58:37.131Z,7.35
2022-10-18T01:01:04.367Z,7.85
2022-10-18T01:03:31.902Z,7.90
2022-10-18T01:05:59.118Z,8.23
2022-10-18T01:08:40.380Z,8.70
2022-10-18T01:11:18.835Z,7.60
2022-10-18T01:14:02.970Z,7.70
2022-10-18T01:16:41.546Z,7.80
2022-10-18T01:19:11.476Z,7.90
2022-10-18T01:21:55.427Z,8.68
2022-10-18T01:24:40.800Z,7.50
2022-10-18T01:27:19.125Z,7.55
2022-10-18T01:29:58.262Z,7.65
2022-10-18T01:32:29.006Z,7.33
2022-10-18T01:34:59.441Z,6.75
2022-10-18T01:37:28.422Z,7.50
2022-10-18T01:39:57.327Z,7.00
2022-10-18T01:42:24.848Z,7.80
2022-10-18T01:44:52.907Z,6.80
2022-10-18T01:47:20.495Z,7.10
2022-10-18T01:49:47.675Z,8.20
2022-10-18T01:52:16.608Z,7.10
2022-10-18T01:54:48.465Z,6.80
2022-10-18T01:57:20.137Z,6.50
2022-10-18T01:59:51.684Z,7.10
2022-10-18T02:02:39.115Z,6.78
2022-10-18T02:05:22.359Z,7.13
2022-10-18T02:08:00.183Z,7.75
2022-10-18T02:10:42.112Z,7.60
2022-10-18T02:13:11.836Z,7.22
2022-10-18T02:15:41.924Z,7.25
2022-10-18T02:18:13.140Z,6.85
2022-10-18T02:20:40.257Z,7.05
2022-10-18T02:23:08.645Z,6.77
2022-10-18T02:25:36.218Z,7.25
2022-10-18T02:28:04.002Z,6.35
2022-10-18T02:30:57.567Z,6.88
2022-10-18T02:33:35.856Z,6.15
2022-10-18T02:36:08.988Z,7.77
2022-10-18T02:38:36.804Z,5.88
2022-10-18T02:41:03.900Z,6.43
2022-10-18T02:43:31.095Z,6.68
2022-10-18T02:45:58.460Z,6.07
2022-10-18T02:48:25.779Z,6.10
2022-10-18T02:50:52.866Z,6.72
2022-10-18T02:53:20.165Z,6.18
2022-10-18T02:55:47.280Z,6.25
2022-10-18T02:58:14.774Z,6.22
2022-10-18T03:00:41.903Z,7.20
2022-10-18T03:03:08.979Z,7.03
2022-10-18T03:05:36.090Z,6.10
2022-10-18T03:08:03.335Z,6.05
2022-10-18T03:10:30.505Z,6.85
2022-10-18T03:12:57.694Z,6.23
2022-10-18T03:15:25.050Z,5.70
2022-10-18T03:17:52.204Z,6.32
2022-10-18T03:20:19.835Z,6.88
2022-10-18T03:22:47.226Z,7.53
2022-10-18T03:25:14.400Z,6.63
2022-10-18T03:27:41.770Z,6.45
2022-10-18T03:30:11.672Z,6.22
2022-10-18T03:32:39.089Z,6.07
2022-10-18T03:35:07.462Z,6.25
2022-10-18T03:37:34.828Z,5.93
2022-10-18T03:40:02.924Z,6.75
2022-10-18T03:42:30.386Z,5.80
2022-10-18T03:44:57.699Z,5.57
2022-10-18T03:47:24.892Z,5.95
2022-10-18T03:49:54.670Z,6.20
2022-10-18T03:52:24.301Z,6.25
2022-10-18T03:54:51.437Z,6.07
2022-10-18T03:57:18.644Z,5.72
2022-10-18T03:59:45.842Z,6.07
2022-10-18T04:02:13.008Z,5.43
2022-10-18T04:04:40.120Z,5.80
2022-10-18T04:07:07.243Z,6.20
2022-10-18T04:09:34.548Z,6.40
2022-10-18T04:12:01.617Z,5.72
2022-10-18T04:14:29.227Z,5.87
2022-10-18T04:16:56.562Z,6.00
2022-10-18T04:19:23.809Z,5.85
2022-10-18T04:21:50.929Z,6.13
2022-10-18T04:24:18.105Z,6.32
2022-10-18T04:26:46.332Z,6.40
2022-10-18T04:29:13.771Z,6.05
2022-10-18T04:31:40.848Z,5.70
2022-10-18T04:34:08.098Z,5.80
2022-10-18T04:36:35.317Z,5.75
2022-10-18T04:39:02.480Z,5.80
2022-10-18T04:41:29.701Z,5.63
2022-10-18T04:43:56.774Z,5.53
2022-10-18T04:46:23.961Z,5.82
2022-10-18T04:48:51.109Z,5.18
2022-10-18T04:51:18.358Z,6.10
2022-10-18T04:53:45.553Z,5.80
2022-10-18T04:56:12.737Z,5.65
2022-10-18T04:58:39.915Z,5.20
2022-10-18T05:01:07.766Z,5.82
2022-10-18T05:03:35.419Z,5.90
2022-10-18T05:06:03.440Z,6.32
2022-10-18T05:08:32.057Z,6.13
2022-10-18T05:11:00.038Z,6.75
2022-10-18T05:13:27.507Z,5.97
2022-10-18T05:15:54.645Z,6.37
2022-10-18T05:18:21.815Z,5.72
2022-10-18T05:20:48.971Z,6.28
2022-10-18T05:23:16.164Z,6.78
2022-10-18T05:25:43.848Z,6.88
2022-10-18T05:28:34.124Z,5.63
2022-10-18T05:31:02.829Z,6.13
2022-10-18T05:33:30.359Z,6.28
2022-10-18T05:35:57.734Z,5.90
2022-10-18T05:38:25.791Z,5.95
2022-10-18T05:40:53.063Z,6.43
2022-10-18T05:43:20.222Z,6.30
2022-10-18T05:45:48.996Z,6.60
2022-10-18T05:48:16.444Z,5.85
2022-10-18T05:50:44.155Z,5.32
2022-10-18T05:53:24.743Z,5.67
2022-10-18T05:56:02.517Z,6.32
2022-10-18T05:58:29.786Z,5.78
2022-10-18T06:01:01.023Z,5.88
2022-10-18T06:03:28.464Z,5.50
2022-10-18T06:06:06.015Z,5.60
2022-10-18T06:08:34.068Z,5.00
2022-10-18T06:11:15.612Z,5.50
2022-10-18T06:13:44.380Z,5.43
2022-10-18T06:16:12.383Z,5.82
2022-10-18T06:18:40.494Z,5.70
2022-10-18T06:21:08.584Z,5.72
2022-10-18T06:23:35.911Z,5.45
2022-10-18T06:26:06.739Z,5.63
2022-10-18T06:28:35.457Z,5.45
2022-10-18T06:31:03.260Z,5.40
2022-10-18T06:33:31.165Z,5.60
2022-10-18T06:36:00.160Z,5.97
2022-10-18T06:38:28.736Z,5.88
2022-10-18T06:40:56.943Z,5.85
2022-10-18T06:43:24.383Z,6.80
2022-10-18T06:45:52.399Z,5.18
2022-10-18T06:50:57.106Z,6.00
2022-10-18T06:53:25.744Z,6.15
2022-10-18T06:55:53.691Z,6.13
2022-10-18T06:58:21.039Z,6.22
2022-10-18T07:00:48.278Z,6.15
2022-10-18T07:03:15.472Z,6.45
2022-10-18T07:05:42.625Z,6.10
2022-10-18T07:08:09.795Z,5.70
2022-10-18T07:10:37.050Z,5.80
2022-10-18T07:13:30.454Z,5.07
2022-10-18T07:16:20.803Z,5.32
2022-10-18T07:18:49.918Z,4.97
2022-10-18T07:21:21.920Z,5.47
2022-10-18T07:23:49.956Z,5.40
2022-10-18T07:26:29.203Z,5.45
2022-10-18T07:28:59.083Z,5.55
2022-10-18T07:31:26.505Z,5.28
2022-10-18T07:33:53.675Z,5.90
2022-10-18T07:36:22.232Z,5.28
2022-10-18T07:38:50.040Z,5.70
2022-10-18T07:41:17.247Z,5.90
2022-10-18T07:43:47.202Z,6.22
2022-10-18T07:46:15.523Z,6.13
2022-10-18T07:48:42.867Z,5.85
2022-10-18T07:51:10.557Z,5.63
2022-10-18T07:53:38.091Z,5.50
2022-10-18T07:56:15.825Z,5.18
2022-10-18T07:58:44.307Z,5.27
2022-10-18T08:01:12.393Z,5.35
2022-10-18T08:03:40.540Z,5.32
2022-10-18T08:06:09.601Z,5.45
2022-10-18T08:08:38.188Z,5.15
2022-10-18T08:11:08.888Z,5.13
2022-10-18T08:13:36.286Z,4.95
2022-10-18T08:16:06.144Z,4.65
2022-10-18T08:18:33.335Z,5.20
2022-10-18T08:21:01.312Z,4.80
2022-10-18T08:23:28.615Z,4.77
2022-10-18T08:25:55.759Z,4.90
2022-10-18T08:28:23.050Z,3.88
2022-10-18T08:30:50.162Z,4.15
2022-10-18T08:33:17.410Z,4.13
2022-10-18T08:35:55.025Z,4.40
2022-10-18T08:38:22.164Z,5.45
2022-10-18T08:40:49.773Z,4.40
2022-10-18T08:43:26.408Z,4.25
2022-10-18T08:45:54.380Z,4.78
2022-10-18T08:48:30.675Z,4.67
2022-10-18T08:50:58.498Z,4.32
2022-10-18T08:53:51.875Z,4.40
2022-10-18T08:56:24.096Z,4.68
2022-10-18T08:58:51.315Z,5.05
2022-10-18T09:01:27.478Z,4.77
2022-10-18T09:04:10.290Z,4.82
2022-10-18T09:06:52.646Z,5.47
2022-10-18T09:09:39.012Z,4.78
2022-10-18T09:12:19.075Z,4.75
2022-10-18T09:15:07.803Z,4.20
2022-10-18T09:17:48.342Z,4.25
2022-10-18T09:20:22.975Z,4.78
2022-10-18T09:23:05.256Z,4.88
2022-10-18T09:25:37.421Z,5.50
2022-10-18T09:28:24.561Z,7.27
2022-10-18T09:31:05.642Z,6.40
2022-10-18T09:33:43.443Z,7.43
2022-10-18T09:36:21.205Z,7.68
2022-10-18T09:38:50.922Z,8.32
2022-10-18T09:41:39.543Z,8.00
2022-10-18T09:44:10.869Z,7.75
2022-10-18T09:46:45.565Z,4.78
2022-10-18T09:49:37.513Z,4.38
2022-10-18T09:52:09.236Z,3.88
2022-10-18T09:54:42.302Z,4.60
2022-10-18T09:57:12.093Z,3.75
2022-10-18T09:59:50.355Z,3.67
2022-10-18T10:02:22.898Z,4.25
2022-10-18T10:04:51.112Z,3.97
2022-10-18T10:07:32.546Z,5.50
2022-10-18T10:10:09.019Z,5.22
2022-10-18T10:12:38.228Z,5.57
2022-10-18T10:15:23.202Z,6.93
2022-10-18T10:17:57.439Z,13.15
2022-10-18T10:20:34.239Z,10.20
2022-10-18T10:23:07.853Z,8.48
2022-10-18T10:25:38.244Z,8.55
2022-10-18T10:28:12.031Z,7.57
2022-10-18T10:30:39.220Z,9.07
2022-10-18T10:33:06.959Z,7.60
2022-10-18T10:35:52.973Z,8.18
2022-10-18T10:38:28.491Z,7.60
2022-10-18T10:40:56.123Z,7.05
2022-10-18T10:43:42.794Z,7.50
2022-10-18T10:46:12.366Z,7.70
2022-10-18T10:48:46.093Z,7.00
2022-10-18T10:51:14.286Z,7.90
2022-10-18T10:54:22.104Z,7.63
2022-10-18T10:57:00.463Z,6.55
2022-10-18T10:59:31.435Z,7.10
2022-10-18T11:02:14.094Z,6.75
2022-10-18T11:04:42.168Z,6.60
2022-10-18T11:07:09.231Z,6.75
2022-10-18T11:09:43.669Z,7.05
2022-10-18T11:12:16.560Z,6.93
2022-10-18T11:14:47.159Z,6.38
2022-10-18T11:17:26.659Z,6.25
2022-10-18T11:20:07.133Z,7.75
2022-10-18T11:22:38.721Z,6.57
2022-10-18T11:25:06.056Z,6.63
2022-10-18T11:27:40.590Z,7.70
2022-10-18T11:30:27.318Z,6.95
2022-10-18T11:33:10.655Z,6.25
2022-10-18T11:35:49.817Z,6.53
2022-10-18T11:38:24.680Z,6.53
2022-10-18T11:41:06.761Z,4.25
2022-10-18T11:44:02.716Z,3.33
2022-10-18T11:46:50.465Z,3.08
2022-10-18T11:49:35.936Z,2.75
2022-10-18T11:52:24.261Z,2.00
2022-10-18T11:55:03.206Z,1.75
2022-10-18T11:57:55.796Z,1.60
2022-10-18T12:00:29.196Z,1.48
2022-10-18T12:03:12.331Z,1.50
2022-10-18T12:05:41.427Z,1.10
2022-10-18T12:08:11.077Z,1.30
2022-10-18T12:10:46.134Z,0.90
2022-10-18T12:13:39.562Z,1.00
2022-10-18T12:16:08.183Z,1.10
2022-10-18T12:18:36.896Z,0.90
2022-10-18T12:21:05.471Z,1.00
2022-10-18T12:23:35.033Z,0.80
2022-10-18T12:26:07.459Z,1.15
2022-10-18T12:28:41.562Z,0.70
2022-10-18T12:31:15.735Z,1.00
2022-10-18T12:33:46.758Z,0.80
2022-10-18T12:36:13.878Z,0.90
2022-10-18T12:38:42.885Z,0.45
2022-10-18T12:41:20.636Z,0.55
2022-10-18T12:43:53.386Z,0.57
2022-10-18T12:46:21.312Z,0.82
2022-10-18T12:49:04.057Z,0.60
2022-10-18T12:51:31.585Z,0.88
2022-10-18T12:54:01.670Z,0.65
2022-10-18T12:56:28.732Z,0.60
2022-10-18T12:59:18.758Z,0.50
2022-10-18T13:01:54.769Z,0.82
2022-10-18T13:04:28.107Z,0.50
2022-10-18T13:06:58.160Z,0.40
2022-10-18T13:09:37.248Z,0.80
2022-10-18T13:12:10.444Z,1.05
2022-10-18T13:15:25.607Z,0.70
2022-10-18T13:18:01.518Z,1.30
2022-10-18T13:20:38.464Z,1.05
2022-10-18T13:23:20.918Z,1.03
2022-10-18T13:25:56.819Z,1.77
2022-10-18T13:28:31.280Z,1.00
2022-10-18T13:31:22.380Z,0.80
2022-10-18T13:33:49.765Z,0.73
2022-10-18T13:36:22.499Z,0.90
2022-10-18T13:38:53.655Z,0.82
2022-10-18T13:44:02.400Z,1.33
2022-10-18T13:46:32.871Z,1.23
2022-10-18T13:49:29.184Z,0.83
2022-10-18T13:52:14.838Z,0.80
2022-10-18T13:55:00.488Z,0.80
2022-10-18T13:57:49.009Z,0.63
2022-10-18T14:00:26.378Z,0.40
2022-10-18T14:03:31.712Z,0.53
2022-10-18T14:06:24.109Z,0.52
2022-10-18T14:09:25.414Z,0.57
2022-10-18T14:12:23.078Z,1.02
2022-10-18T14:14:55.671Z,1.20
2022-10-18T14:17:30.461Z,0.93
2022-10-18T14:20:27.233Z,0.90
2022-10-18T14:23:12.932Z,0.70
2022-10-18T14:25:40.253Z,1.20
2022-10-18T14:28:17.321Z,0.90
2022-10-18T14:30:58.995Z,1.20
2022-10-18T14:33:29.229Z,1.10
2022-10-18T14:36:03.103Z,0.90
2022-10-18T14:38:30.427Z,0.88
2022-10-18T14:41:15.570Z,0.80
2022-10-18T14:43:43.899Z,0.70
2022-10-18T14:46:16.355Z,0.85
2022-10-18T14:48:58.403Z,0.70
2022-10-18T14:51:27.417Z,1.00
2022-10-18T14:53:55.070Z,0.80
2022-10-18T14:56:32.970Z,1.00
2022-10-18T14:59:05.416Z,1.00
2022-10-18T15:01:32.934Z,0.80
2022-10-18T15:04:02.414Z,0.90
2022-10-18T15:06:29.666Z,0.60
2022-10-18T15:08:58.134Z,0.70
2022-10-18T15:11:26.497Z,0.88
2022-10-18T15:13:55.878Z,0.98
2022-10-18T15:16:28.288Z,0.80
2022-10-18T15:19:07.069Z,1.10
2022-10-18T15:21:36.114Z,0.77
2022-10-18T15:24:19.692Z,0.88
2022-10-18T15:26:47.705Z,0.80
2022-10-18T15:29:21.997Z,1.00
2022-10-18T15:31:49.792Z,0.80
2022-10-18T15:34:20.788Z,1.13
2022-10-18T15:36:49.443Z,0.90
2022-10-18T15:39:24.940Z,1.08
2022-10-18T15:41:56.265Z,1.08
2022-10-18T15:44:25.229Z,1.00
2022-10-18T15:46:55.426Z,0.90
2022-10-18T15:49:25.155Z,0.90
2022-10-18T15:52:32.568Z,0.70
2022-10-18T15:55:31.109Z,0.95
2022-10-18T15:58:15.023Z,0.70
2022-10-18T16:00:43.958Z,1.10
2022-10-18T16:03:11.310Z,0.90
2022-10-18T16:05:39.086Z,1.20
2022-10-18T16:08:06.402Z,1.20
2022-10-18T16:10:33.560Z,1.00
2022-10-18T16:13:00.689Z,0.97
2022-10-18T16:15:27.797Z,1.25
2022-10-18T16:17:54.899Z,0.70
2022-10-18T16:20:24.628Z,0.90
2022-10-18T16:22:51.812Z,0.90
2022-10-18T16:25:18.998Z,0.93
2022-10-18T16:27:46.133Z,1.13
2022-10-18T16:30:15.402Z,1.15
2022-10-18T16:32:42.578Z,1.75
2022-10-18T16:35:12.085Z,1.60
2022-10-18T16:37:39.898Z,1.83
2022-10-18T16:40:34.621Z,1.70
2022-10-18T16:43:04.071Z,1.50
2022-10-18T16:45:31.335Z,1.73
2022-10-18T16:47:58.470Z,1.50
2022-10-18T16:50:25.602Z,1.83
2022-10-18T16:52:52.740Z,1.60
2022-10-18T16:55:24.996Z,1.90
2022-10-18T16:57:52.262Z,1.90
2022-10-18T17:00:22.121Z,1.88
2022-10-18T17:02:49.953Z,1.70
2022-10-18T17:05:18.205Z,2.13
2022-10-18T17:07:45.782Z,1.77
2022-10-18T17:10:17.706Z,2.42
2022-10-18T17:12:45.101Z,3.50
2022-10-18T17:15:12.829Z,3.00
2022-10-18T17:17:39.971Z,2.95
2022-10-18T17:20:08.156Z,2.88
2022-10-18T17:22:35.339Z,3.80
2022-10-18T17:25:02.458Z,3.30
2022-10-18T17:27:29.711Z,3.53
2022-10-18T17:29:57.646Z,3.67
2022-10-18T17:32:24.838Z,3.55
2022-10-18T17:34:52.055Z,3.67
2022-10-18T17:37:19.177Z,4.10
2022-10-18T17:39:46.404Z,3.70
2022-10-18T17:42:13.582Z,3.75
2022-10-18T17:44:40.803Z,3.47
2022-10-18T17:47:08.763Z,4.43
2022-10-18T17:49:35.939Z,3.20
2022-10-18T17:52:06.890Z,4.40
2022-10-18T17:54:34.341Z,3.60
2022-10-18T17:57:01.509Z,4.78
2022-10-18T17:59:29.011Z,4.10
2022-10-18T18:01:56.135Z,3.85
2022-10-18T18:04:24.541Z,4.40
2022-10-18T18:06:52.970Z,4.43
2022-10-18T18:09:21.170Z,4.53
2022-10-18T18:11:49.385Z,4.40
2022-10-18T18:14:16.618Z,4.88
2022-10-18T18:16:45.920Z,4.40
2022-10-18T18:19:13.913Z,4.50
2022-10-18T18:21:41.734Z,4.40
2022-10-18T18:24:10.235Z,3.88
2022-10-18T18:26:38.832Z,4.72
2022-10-18T18:29:06.133Z,4.50
2022-10-18T18:31:38.795Z,4.88
2022-10-18T18:34:10.008Z,4.28
2022-10-18T18:36:37.635Z,4.43
2022-10-18T18:39:05.769Z,4.53
2022-10-18T18:41:33.167Z,4.47
2022-10-18T18:44:05.132Z,4.35
2022-10-18T18:46:37.331Z,4.65
2022-10-18T18:49:06.181Z,4.45
2022-10-18T18:51:33.530Z,4.60
2022-10-18T18:54:00.822Z,5.50
2022-10-18T18:56:29.101Z,5.22
2022-10-18T18:58:58.729Z,6.18
2022-10-18T19:01:36.557Z,5.88
2022-10-18T19:04:05.086Z,6.18
2022-10-18T19:06:41.478Z,6.60
2022-10-18T19:09:21.939Z,6.65
2022-10-18T19:11:52.597Z,6.50
2022-10-18T19:16:59.025Z,7.07
2022-10-18T19:19:27.918Z,7.57
2022-10-18T19:22:03.683Z,7.80
2022-10-18T19:24:31.279Z,7.60
2022-10-18T19:27:04.111Z,9.27
2022-10-18T19:29:33.690Z,8.35
2022-10-18T19:32:04.007Z,8.10
2022-10-18T19:34:32.158Z,7.78
2022-10-18T19:36:59.319Z,7.97
2022-10-18T19:39:29.534Z,8.50
2022-10-18T19:41:58.475Z,9.05
2022-10-18T19:44:28.352Z,8.13
2022-10-18T19:46:55.799Z,8.98
2022-10-18T19:49:23.107Z,8.20
2022-10-18T19:51:50.224Z,7.93
2022-10-18T19:54:17.639Z,8.18
2022-10-18T19:56:44.844Z,8.03
2022-10-18T19:59:13.412Z,8.80
2022-10-18T20:01:41.034Z,8.15
2022-10-18T20:04:08.926Z,8.65
2022-10-18T20:06:37.171Z,8.30
2022-10-18T20:09:06.009Z,8.87
2022-10-18T20:11:33.598Z,7.93
2022-10-18T20:14:00.904Z,6.78
2022-10-18T20:16:30.467Z,7.80
2022-10-18T20:18:59.378Z,6.88
2022-10-18T20:21:27.616Z,7.10
2022-10-18T20:23:55.083Z,7.32
2022-10-18T20:26:22.704Z,7.15
2022-10-18T20:28:57.389Z,6.85
2022-10-18T20:31:27.217Z,7.55
2022-10-18T20:33:56.699Z,6.50
2022-10-18T20:36:24.126Z,6.05
2022-10-18T20:38:51.311Z,6.68
2022-10-18T20:41:24.808Z,6.70
2022-10-18T20:43:56.928Z,5.60
2022-10-18T20:46:24.685Z,6.07
2022-10-18T20:48:52.420Z,6.75
2022-10-18T20:51:20.522Z,7.00
2022-10-18T20:53:47.721Z,6.72
2022-10-18T20:56:22.717Z,7.15
2022-10-18T20:58:51.624Z,7.47
2022-10-18T21:01:30.295Z,7.88
2022-10-18T21:04:05.524Z,7.80
2022-10-18T21:06:43.199Z,7.72
2022-10-18T21:09:15.980Z,7.90
2022-10-18T21:11:45.811Z,7.23
2022-10-18T21:14:15.303Z,6.43
2022-10-18T21:16:43.753Z,7.97
2022-10-18T21:19:17.412Z,8.07
2022-10-18T21:21:47.157Z,7.47
2022-10-18T21:24:14.726Z,8.10
2022-10-18T21:26:41.887Z,7.72
2022-10-18T21:29:11.022Z,8.15
2022-10-18T21:31:40.210Z,7.45
2022-10-18T21:34:12.891Z,8.02
2022-10-18T21:36:41.067Z,8.20
2022-10-18T21:39:11.230Z,8.25
2022-10-18T21:41:38.330Z,9.77
2022-10-18T21:44:08.391Z,7.68
2022-10-18T21:46:39.419Z,7.85
2022-10-18T21:49:07.306Z,8.77
2022-10-18T21:51:34.674Z,7.75
2022-10-18T21:54:01.997Z,8.00
2022-10-18T21:56:31.846Z,8.38
2022-10-18T21:58:59.420Z,8.05
2022-10-18T22:01:37.104Z,7.73
2022-10-18T22:04:06.834Z,7.50
2022-10-18T22:09:06.249Z,8.13
2022-10-18T22:11:36.390Z,7.78
2022-10-18T22:14:03.745Z,8.03
2022-10-18T22:16:30.838Z,8.70
2022-10-18T22:18:59.763Z,8.05
2022-10-18T22:21:27.777Z,8.88
2022-10-18T22:23:59.332Z,8.32
2022-10-18T22:26:32.567Z,8.83
2022-10-18T22:29:08.628Z,8.70
2022-10-18T22:31:37.311Z,7.82
2022-10-18T22:34:11.072Z,8.80
2022-10-18T22:36:38.592Z,9.40
2022-10-18T22:39:06.779Z,11.10
2022-10-18T22:41:34.847Z,10.18
2022-10-18T22:44:03.671Z,9.48
2022-10-18T22:46:32.680Z,8.93
2022-10-18T22:49:00.410Z,9.45
2022-10-18T22:51:27.605Z,8.87
2022-10-18T22:53:54.803Z,9.00
2022-10-18T22:56:22.830Z,8.07
2022-10-18T22:58:50.576Z,8.68
2022-10-18T23:01:20.332Z,7.97
2022-10-18T23:03:52.411Z,7.27
2022-10-18T23:06:34.286Z,7.53
2022-10-18T23:09:06.034Z,7.50
2022-10-18T23:11:34.102Z,7.68
2022-10-18T23:14:03.785Z,7.63
2022-10-18T23:16:31.376Z,7.10
2022-10-18T23:18:59.332Z,6.93
2022-10-18T23:21:28.102Z,6.70
2022-10-18T23:23:55.933Z,6.70
2022-10-18T23:26:25.192Z,6.72
2022-10-18T23:28:53.156Z,7.03
2022-10-18T23:31:29.527Z,6.18
2022-10-18T23:33:59.069Z,6.70
2022-10-18T23:36:27.006Z,6.60
2022-10-18T23:38:54.505Z,6.15
2022-10-18T23:41:21.923Z,5.53
2022-10-18T23:43:49.123Z,5.90
2022-10-18T23:46:17.289Z,6.45
2022-10-18T23:48:44.958Z,5.78
2022-10-18T23:51:12.183Z,7.15
2022-10-18T23:53:39.751Z,6.73
2022-10-18T23:56:09.634Z,6.07
2022-10-18T23:58:37.331Z,5.97
